sensor_id;sensor_type;location;lat;lon;timestamp;P1;durP1;ratioP1;P2;durP2;ratioP2
14060;SDS011;7105;43.616;1.434;2022-10-28T00:03:38;14.05;;;8.85;;
14060;SDS011;7105;43.616;1.434;2022-10-28T00:06:21;11.63;;;8.32;;
14060;SDS011;7105;43.616;1.434;2022-10-28T00:08:48;18.05;;;9.00;;
14060;SDS011;7105;43.616;1.434;2022-10-28T00:13:44;14.90;;;8.18;;
14060;SDS011;7105;43.616;1.434;2022-10-28T00:18:40;15.37;;;9.17;;
14060;SDS011;7105;43.616;1.434;2022-10-28T00:21:11;14.95;;;9.10;;
14060;SDS011;7105;43.616;1.434;2022-10-28T00:23:42;16.98;;;9.70;;
14060;SDS011;7105;43.616;1.434;2022-10-28T00:26:10;16.85;;;9.95;;
14060;SDS011;7105;43.616;1.434;2022-10-28T00:28:41;17.83;;;9.15;;
14060;SDS011;7105;43.616;1.434;2022-10-28T00:31:11;14.38;;;8.82;;
14060;SDS011;7105;43.616;1.434;2022-10-28T00:33:38;14.93;;;10.27;;
14060;SDS011;7105;43.616;1.434;2022-10-28T00:36:06;15.93;;;9.30;;
14060;SDS011;7105;43.616;1.434;2022-10-28T00:38:33;14.40;;;9.15;;
14060;SDS011;7105;43.616;1.434;2022-10-28T00:40:59;13.75;;;9.35;;
14060;SDS011;7105;43.616;1.434;2022-10-28T00:43:41;15.15;;;9.02;;
14060;SDS011;7105;43.616;1.434;2022-10-28T00:48:41;13.68;;;8.90;;
14060;SDS011;7105;43.616;1.434;2022-10-28T00:51:09;17.10;;;9.45;;
14060;SDS011;7105;43.616;1.434;2022-10-28T00:53:35;18.25;;;9.15;;
14060;SDS011;7105;43.616;1.434;2022-10-28T00:56:04;14.98;;;8.75;;
14060;SDS011;7105;43.616;1.434;2022-10-28T00:58:31;17.30;;;9.70;;
14060;SDS011;7105;43.616;1.434;2022-10-28T01:00:57;16.50;;;8.98;;
14060;SDS011;7105;43.616;1.434;2022-10-28T01:03:22;17.48;;;9.25;;
14060;SDS011;7105;43.616;1.434;2022-10-28T01:05:48;17.17;;;9.25;;
14060;SDS011;7105;43.616;1.434;2022-10-28T01:08:15;12.70;;;9.23;;
14060;SDS011;7105;43.616;1.434;2022-10-28T01:33:31;14.10;;;7.72;;
14060;SDS011;7105;43.616;1.434;2022-10-28T01:36:06;13.82;;;8.48;;
14060;SDS011;7105;43.616;1.434;2022-10-28T01:38:43;13.82;;;8.63;;
14060;SDS011;7105;43.616;1.434;2022-10-28T01:44:07;17.23;;;8.90;;
14060;SDS011;7105;43.616;1.434;2022-10-28T01:49:31;11.73;;;8.03;;
14060;SDS011;7105;43.616;1.434;2022-10-28T01:52:04;17.48;;;8.88;;
14060;SDS011;7105;43.616;1.434;2022-10-28T01:54:33;18.20;;;9.20;;
14060;SDS011;7105;43.616;1.434;2022-10-28T01:57:02;14.85;;;8.25;;
14060;SDS011;7105;43.616;1.434;2022-10-28T01:59:29;16.65;;;8.68;;
14060;SDS011;7105;43.616;1.434;2022-10-28T02:01:57;19.85;;;9.48;;
14060;SDS011;7105;43.616;1.434;2022-10-28T02:04:23;16.93;;;9.23;;
14060;SDS011;7105;43.616;1.434;2022-10-28T02:06:50;18.13;;;8.50;;
14060;SDS011;7105;43.616;1.434;2022-10-28T02:09:27;16.85;;;8.85;;
14060;SDS011;7105;43.616;1.434;2022-10-28T02:12:21;14.27;;;8.43;;
14060;SDS011;7105;43.616;1.434;2022-10-28T02:15:13;16.85;;;8.57;;
14060;SDS011;7105;43.616;1.434;2022-10-28T02:20:27;17.27;;;8.20;;
14060;SDS011;7105;43.616;1.434;2022-10-28T02:25:36;14.30;;;8.70;;
14060;SDS011;7105;43.616;1.434;2022-10-28T02:28:06;16.88;;;8.52;;
14060;SDS011;7105;43.616;1.434;2022-10-28T02:30:46;16.00;;;9.32;;
14060;SDS011;7105;43.616;1.434;2022-10-28T02:33:20;21.50;;;9.07;;
14060;SDS011;7105;43.616;1.434;2022-10-28T02:35:50;13.60;;;9.15;;
14060;SDS011;7105;43.616;1.434;2022-10-28T02:38:38;19.57;;;8.20;;
14060;SDS011;7105;43.616;1.434;2022-10-28T02:41:16;19.47;;;8.70;;
14060;SDS011;7105;43.616;1.434;2022-10-28T02:43:46;16.70;;;8.98;;
14060;SDS011;7105;43.616;1.434;2022-10-28T02:46:17;16.08;;;8.45;;
14060;SDS011;7105;43.616;1.434;2022-10-28T02:48:49;12.70;;;8.83;;
14060;SDS011;7105;43.616;1.434;2022-10-28T02:51:32;13.83;;;8.33;;
14060;SDS011;7105;43.616;1.434;2022-10-28T02:54:08;14.20;;;8.17;;
14060;SDS011;7105;43.616;1.434;2022-10-28T02:56:52;16.85;;;8.50;;
14060;SDS011;7105;43.616;1.434;2022-10-28T02:59:25;15.88;;;8.32;;
14060;SDS011;7105;43.616;1.434;2022-10-28T03:01:52;17.95;;;8.65;;
14060;SDS011;7105;43.616;1.434;2022-10-28T03:04:18;14.77;;;8.35;;
14060;SDS011;7105;43.616;1.434;2022-10-28T03:06:43;18.75;;;8.18;;
14060;SDS011;7105;43.616;1.434;2022-10-28T03:09:09;11.55;;;7.65;;
14060;SDS011;7105;43.616;1.434;2022-10-28T03:11:34;19.97;;;8.20;;
14060;SDS011;7105;43.616;1.434;2022-10-28T03:14:00;15.77;;;8.57;;
14060;SDS011;7105;43.616;1.434;2022-10-28T03:16:26;16.80;;;8.45;;
14060;SDS011;7105;43.616;1.434;2022-10-28T03:18:52;12.43;;;8.15;;
14060;SDS011;7105;43.616;1.434;2022-10-28T03:21:17;17.77;;;8.73;;
14060;SDS011;7105;43.616;1.434;2022-10-28T03:23:43;16.58;;;8.13;;
14060;SDS011;7105;43.616;1.434;2022-10-28T03:26:09;15.02;;;7.60;;
14060;SDS011;7105;43.616;1.434;2022-10-28T03:28:35;14.25;;;7.72;;
14060;SDS011;7105;43.616;1.434;2022-10-28T03:31:00;14.88;;;8.13;;
14060;SDS011;7105;43.616;1.434;2022-10-28T03:33:26;14.80;;;8.20;;
14060;SDS011;7105;43.616;1.434;2022-10-28T03:35:52;15.35;;;6.88;;
14060;SDS011;7105;43.616;1.434;2022-10-28T03:38:17;13.27;;;7.83;;
14060;SDS011;7105;43.616;1.434;2022-10-28T03:40:43;14.07;;;8.40;;
14060;SDS011;7105;43.616;1.434;2022-10-28T03:43:12;14.33;;;8.00;;
14060;SDS011;7105;43.616;1.434;2022-10-28T03:45:38;11.63;;;7.18;;
14060;SDS011;7105;43.616;1.434;2022-10-28T03:48:04;15.05;;;7.95;;
14060;SDS011;7105;43.616;1.434;2022-10-28T03:50:30;14.05;;;7.68;;
14060;SDS011;7105;43.616;1.434;2022-10-28T03:52:55;15.80;;;8.32;;
14060;SDS011;7105;43.616;1.434;2022-10-28T03:55:21;14.35;;;8.02;;
14060;SDS011;7105;43.616;1.434;2022-10-28T03:57:47;14.23;;;8.73;;
14060;SDS011;7105;43.616;1.434;2022-10-28T04:00:13;15.10;;;7.60;;
14060;SDS011;7105;43.616;1.434;2022-10-28T04:02:39;16.47;;;8.17;;
14060;SDS011;7105;43.616;1.434;2022-10-28T04:05:05;16.05;;;7.55;;
14060;SDS011;7105;43.616;1.434;2022-10-28T04:07:31;18.43;;;8.60;;
14060;SDS011;7105;43.616;1.434;2022-10-28T04:09:57;12.57;;;8.20;;
14060;SDS011;7105;43.616;1.434;2022-10-28T04:12:22;18.83;;;8.10;;
14060;SDS011;7105;43.616;1.434;2022-10-28T04:14:48;17.23;;;8.27;;
14060;SDS011;7105;43.616;1.434;2022-10-28T04:17:14;16.65;;;8.20;;
14060;SDS011;7105;43.616;1.434;2022-10-28T04:19:39;12.73;;;7.65;;
14060;SDS011;7105;43.616;1.434;2022-10-28T04:22:05;11.00;;;6.57;;
14060;SDS011;7105;43.616;1.434;2022-10-28T04:24:32;13.30;;;7.93;;
14060;SDS011;7105;43.616;1.434;2022-10-28T04:26:57;16.20;;;8.02;;
14060;SDS011;7105;43.616;1.434;2022-10-28T04:29:23;13.10;;;7.40;;
14060;SDS011;7105;43.616;1.434;2022-10-28T04:31:49;19.95;;;8.50;;
14060;SDS011;7105;43.616;1.434;2022-10-28T04:34:14;15.73;;;8.00;;
14060;SDS011;7105;43.616;1.434;2022-10-28T04:36:40;15.68;;;7.47;;
14060;SDS011;7105;43.616;1.434;2022-10-28T04:39:05;17.00;;;7.80;;
14060;SDS011;7105;43.616;1.434;2022-10-28T04:41:32;17.08;;;7.57;;
14060;SDS011;7105;43.616;1.434;2022-10-28T04:43:58;13.70;;;7.30;;
14060;SDS011;7105;43.616;1.434;2022-10-28T04:46:24;13.83;;;8.17;;
14060;SDS011;7105;43.616;1.434;2022-10-28T04:48:50;17.00;;;8.48;;
14060;SDS011;7105;43.616;1.434;2022-10-28T04:51:15;20.30;;;8.70;;
14060;SDS011;7105;43.616;1.434;2022-10-28T04:53:41;14.53;;;7.97;;
14060;SDS011;7105;43.616;1.434;2022-10-28T04:56:07;17.85;;;7.85;;
14060;SDS011;7105;43.616;1.434;2022-10-28T04:58:33;13.70;;;7.80;;
14060;SDS011;7105;43.616;1.434;2022-10-28T05:00:58;15.63;;;8.80;;
14060;SDS011;7105;43.616;1.434;2022-10-28T05:03:30;14.80;;;8.07;;
14060;SDS011;7105;43.616;1.434;2022-10-28T05:05:55;18.63;;;7.75;;
14060;SDS011;7105;43.616;1.434;2022-10-28T05:08:21;14.03;;;7.73;;
14060;SDS011;7105;43.616;1.434;2022-10-28T05:10:47;15.70;;;8.93;;
14060;SDS011;7105;43.616;1.434;2022-10-28T05:13:15;17.30;;;8.77;;
14060;SDS011;7105;43.616;1.434;2022-10-28T05:15:41;16.77;;;8.43;;
14060;SDS011;7105;43.616;1.434;2022-10-28T05:18:07;14.77;;;8.03;;
14060;SDS011;7105;43.616;1.434;2022-10-28T05:20:32;11.90;;;8.03;;
14060;SDS011;7105;43.616;1.434;2022-10-28T05:22:58;22.37;;;8.67;;
14060;SDS011;7105;43.616;1.434;2022-10-28T05:25:24;15.07;;;8.60;;
14060;SDS011;7105;43.616;1.434;2022-10-28T05:27:50;15.80;;;8.83;;
14060;SDS011;7105;43.616;1.434;2022-10-28T05:30:16;15.10;;;8.30;;
14060;SDS011;7105;43.616;1.434;2022-10-28T05:32:42;18.00;;;8.90;;
14060;SDS011;7105;43.616;1.434;2022-10-28T05:35:08;19.57;;;9.23;;
14060;SDS011;7105;43.616;1.434;2022-10-28T05:37:34;19.07;;;8.87;;
14060;SDS011;7105;43.616;1.434;2022-10-28T05:40:00;15.37;;;8.63;;
14060;SDS011;7105;43.616;1.434;2022-10-28T05:42:27;17.63;;;8.67;;
14060;SDS011;7105;43.616;1.434;2022-10-28T05:44:52;18.80;;;8.50;;
14060;SDS011;7105;43.616;1.434;2022-10-28T05:47:18;20.17;;;8.80;;
14060;SDS011;7105;43.616;1.434;2022-10-28T05:49:44;23.40;;;8.73;;
14060;SDS011;7105;43.616;1.434;2022-10-28T05:52:09;17.30;;;8.53;;
14060;SDS011;7105;43.616;1.434;2022-10-28T05:54:35;14.77;;;8.30;;
14060;SDS011;7105;43.616;1.434;2022-10-28T05:57:01;16.50;;;9.40;;
14060;SDS011;7105;43.616;1.434;2022-10-28T05:59:26;20.97;;;8.63;;
14060;SDS011;7105;43.616;1.434;2022-10-28T06:01:52;17.92;;;8.88;;
14060;SDS011;7105;43.616;1.434;2022-10-28T06:04:18;17.97;;;9.00;;
14060;SDS011;7105;43.616;1.434;2022-10-28T06:06:43;19.57;;;8.80;;
14060;SDS011;7105;43.616;1.434;2022-10-28T06:09:09;21.93;;;9.20;;
14060;SDS011;7105;43.616;1.434;2022-10-28T06:11:35;20.23;;;9.53;;
14060;SDS011;7105;43.616;1.434;2022-10-28T06:14:00;15.90;;;8.90;;
14060;SDS011;7105;43.616;1.434;2022-10-28T06:16:26;20.17;;;9.07;;
14060;SDS011;7105;43.616;1.434;2022-10-28T06:18:52;22.53;;;9.20;;
14060;SDS011;7105;43.616;1.434;2022-10-28T06:21:18;18.33;;;9.50;;
14060;SDS011;7105;43.616;1.434;2022-10-28T06:23:45;18.13;;;8.93;;
14060;SDS011;7105;43.616;1.434;2022-10-28T06:26:10;16.23;;;8.70;;
14060;SDS011;7105;43.616;1.434;2022-10-28T06:28:36;20.67;;;9.07;;
14060;SDS011;7105;43.616;1.434;2022-10-28T06:31:03;19.90;;;9.47;;
14060;SDS011;7105;43.616;1.434;2022-10-28T06:33:30;17.07;;;8.70;;
14060;SDS011;7105;43.616;1.434;2022-10-28T06:35:57;18.20;;;9.20;;
14060;SDS011;7105;43.616;1.434;2022-10-28T06:38:24;17.23;;;9.63;;
14060;SDS011;7105;43.616;1.434;2022-10-28T06:40:50;17.77;;;8.40;;
14060;SDS011;7105;43.616;1.434;2022-10-28T06:43:16;17.73;;;9.03;;
14060;SDS011;7105;43.616;1.434;2022-10-28T06:45:42;20.67;;;8.80;;
14060;SDS011;7105;43.616;1.434;2022-10-28T06:48:09;22.83;;;8.17;;
14060;SDS011;7105;43.616;1.434;2022-10-28T06:50:35;24.43;;;9.60;;
14060;SDS011;7105;43.616;1.434;2022-10-28T06:53:01;21.77;;;9.40;;
14060;SDS011;7105;43.616;1.434;2022-10-28T06:55:27;20.23;;;9.13;;
14060;SDS011;7105;43.616;1.434;2022-10-28T06:57:53;20.73;;;9.40;;
14060;SDS011;7105;43.616;1.434;2022-10-28T07:00:23;20.25;;;8.77;;
14060;SDS011;7105;43.616;1.434;2022-10-28T07:02:51;22.98;;;8.80;;
14060;SDS011;7105;43.616;1.434;2022-10-28T07:05:17;17.30;;;8.90;;
14060;SDS011;7105;43.616;1.434;2022-10-28T07:07:43;15.73;;;8.13;;
14060;SDS011;7105;43.616;1.434;2022-10-28T07:10:08;19.50;;;8.93;;
14060;SDS011;7105;43.616;1.434;2022-10-28T07:12:34;19.47;;;9.00;;
14060;SDS011;7105;43.616;1.434;2022-10-28T07:15:00;16.47;;;9.10;;
14060;SDS011;7105;43.616;1.434;2022-10-28T07:17:25;17.27;;;8.68;;
14060;SDS011;7105;43.616;1.434;2022-10-28T07:19:51;16.77;;;8.43;;
14060;SDS011;7105;43.616;1.434;2022-10-28T07:22:17;14.37;;;9.30;;
14060;SDS011;7105;43.616;1.434;2022-10-28T07:24:42;20.95;;;9.32;;
14060;SDS011;7105;43.616;1.434;2022-10-28T07:27:08;17.20;;;8.47;;
14060;SDS011;7105;43.616;1.434;2022-10-28T07:29:34;21.38;;;9.55;;
14060;SDS011;7105;43.616;1.434;2022-10-28T07:32:00;24.70;;;9.43;;
14060;SDS011;7105;43.616;1.434;2022-10-28T07:34:25;17.73;;;8.98;;
14060;SDS011;7105;43.616;1.434;2022-10-28T07:36:51;19.15;;;8.25;;
14060;SDS011;7105;43.616;1.434;2022-10-28T07:39:19;16.63;;;8.45;;
14060;SDS011;7105;43.616;1.434;2022-10-28T07:41:44;19.10;;;8.55;;
14060;SDS011;7105;43.616;1.434;2022-10-28T07:44:10;20.02;;;8.52;;
14060;SDS011;7105;43.616;1.434;2022-10-28T07:46:36;17.90;;;8.23;;
14060;SDS011;7105;43.616;1.434;2022-10-28T07:49:01;18.20;;;8.55;;
14060;SDS011;7105;43.616;1.434;2022-10-28T07:51:27;16.08;;;8.38;;
14060;SDS011;7105;43.616;1.434;2022-10-28T07:53:54;19.20;;;8.60;;
14060;SDS011;7105;43.616;1.434;2022-10-28T07:56:21;15.43;;;8.48;;
14060;SDS011;7105;43.616;1.434;2022-10-28T07:58:47;15.80;;;8.98;;
14060;SDS011;7105;43.616;1.434;2022-10-28T08:01:14;16.23;;;8.43;;
14060;SDS011;7105;43.616;1.434;2022-10-28T08:03:41;16.48;;;7.60;;
14060;SDS011;7105;43.616;1.434;2022-10-28T08:06:08;19.92;;;7.45;;
14060;SDS011;7105;43.616;1.434;2022-10-28T08:08:41;15.20;;;7.70;;
14060;SDS011;7105;43.616;1.434;2022-10-28T08:11:15;17.75;;;7.60;;
14060;SDS011;7105;43.616;1.434;2022-10-28T08:13:46;18.90;;;7.35;;
14060;SDS011;7105;43.616;1.434;2022-10-28T08:16:12;12.60;;;7.40;;
14060;SDS011;7105;43.616;1.434;2022-10-28T08:18:38;14.57;;;7.45;;
14060;SDS011;7105;43.616;1.434;2022-10-28T08:21:05;22.15;;;7.43;;
14060;SDS011;7105;43.616;1.434;2022-10-28T08:23:32;12.50;;;6.60;;
14060;SDS011;7105;43.616;1.434;2022-10-28T08:25:58;20.02;;;7.90;;
14060;SDS011;7105;43.616;1.434;2022-10-28T08:28:24;19.15;;;8.00;;
14060;SDS011;7105;43.616;1.434;2022-10-28T08:30:50;16.85;;;7.10;;
14060;SDS011;7105;43.616;1.434;2022-10-28T08:33:16;16.90;;;8.38;;
14060;SDS011;7105;43.616;1.434;2022-10-28T08:35:42;17.65;;;7.00;;
14060;SDS011;7105;43.616;1.434;2022-10-28T08:38:13;19.00;;;7.93;;
14060;SDS011;7105;43.616;1.434;2022-10-28T08:41:00;17.90;;;7.72;;
14060;SDS011;7105;43.616;1.434;2022-10-28T08:49:11;19.92;;;7.93;;
14060;SDS011;7105;43.616;1.434;2022-10-28T08:54:23;17.48;;;8.27;;
14060;SDS011;7105;43.616;1.434;2022-10-28T08:56:55;19.60;;;8.30;;
14060;SDS011;7105;43.616;1.434;2022-10-28T08:59:26;13.90;;;7.43;;
14060;SDS011;7105;43.616;1.434;2022-10-28T09:01:58;18.15;;;7.70;;
14060;SDS011;7105;43.616;1.434;2022-10-28T09:06:59;15.25;;;8.25;;
14060;SDS011;7105;43.616;1.434;2022-10-28T09:09:26;16.73;;;8.55;;
14060;SDS011;7105;43.616;1.434;2022-10-28T09:17:16;16.67;;;8.25;;
14060;SDS011;7105;43.616;1.434;2022-10-28T09:19:53;16.23;;;8.27;;
14060;SDS011;7105;43.616;1.434;2022-10-28T09:22:35;18.40;;;7.30;;
14060;SDS011;7105;43.616;1.434;2022-10-28T09:36:20;18.17;;;7.65;;
14060;SDS011;7105;43.616;1.434;2022-10-28T09:38:56;18.83;;;7.60;;
14060;SDS011;7105;43.616;1.434;2022-10-28T09:41:25;17.60;;;8.00;;
14060;SDS011;7105;43.616;1.434;2022-10-28T09:44:07;19.60;;;6.90;;
14060;SDS011;7105;43.616;1.434;2022-10-28T09:46:50;16.40;;;7.55;;
14060;SDS011;7105;43.616;1.434;2022-10-28T09:49:21;19.58;;;8.52;;
14060;SDS011;7105;43.616;1.434;2022-10-28T09:54:38;19.65;;;7.85;;
14060;SDS011;7105;43.616;1.434;2022-10-28T09:57:10;17.95;;;7.68;;
14060;SDS011;7105;43.616;1.434;2022-10-28T09:59:35;22.10;;;8.07;;
14060;SDS011;7105;43.616;1.434;2022-10-28T10:02:02;21.17;;;7.88;;
14060;SDS011;7105;43.616;1.434;2022-10-28T10:04:28;20.25;;;8.30;;
14060;SDS011;7105;43.616;1.434;2022-10-28T10:07:04;25.58;;;8.93;;
14060;SDS011;7105;43.616;1.434;2022-10-28T10:09:35;16.17;;;7.97;;
14060;SDS011;7105;43.616;1.434;2022-10-28T10:12:09;18.45;;;7.65;;
14060;SDS011;7105;43.616;1.434;2022-10-28T10:17:14;19.13;;;7.97;;
14060;SDS011;7105;43.616;1.434;2022-10-28T10:20:00;18.30;;;8.23;;
14060;SDS011;7105;43.616;1.434;2022-10-28T10:30:27;18.08;;;7.53;;
14060;SDS011;7105;43.616;1.434;2022-10-28T10:33:04;16.40;;;7.55;;
14060;SDS011;7105;43.616;1.434;2022-10-28T10:35:32;18.17;;;7.93;;
14060;SDS011;7105;43.616;1.434;2022-10-28T10:38:00;18.38;;;8.05;;
14060;SDS011;7105;43.616;1.434;2022-10-28T10:40:29;19.48;;;8.40;;
14060;SDS011;7105;43.616;1.434;2022-10-28T10:43:39;16.27;;;7.45;;
14060;SDS011;7105;43.616;1.434;2022-10-28T10:48:25;20.85;;;7.38;;
14060;SDS011;7105;43.616;1.434;2022-10-28T10:50:56;13.57;;;7.38;;
14060;SDS011;7105;43.616;1.434;2022-10-28T10:53:23;18.30;;;7.38;;
14060;SDS011;7105;43.616;1.434;2022-10-28T10:56:00;21.70;;;7.28;;
14060;SDS011;7105;43.616;1.434;2022-10-28T10:58:34;17.75;;;7.93;;
14060;SDS011;7105;43.616;1.434;2022-10-28T11:01:19;15.77;;;8.02;;
14060;SDS011;7105;43.616;1.434;2022-10-28T11:03:49;16.80;;;7.28;;
14060;SDS011;7105;43.616;1.434;2022-10-28T11:06:37;16.20;;;8.30;;
14060;SDS011;7105;43.616;1.434;2022-10-28T11:09:05;17.95;;;8.15;;
14060;SDS011;7105;43.616;1.434;2022-10-28T11:11:42;15.18;;;7.53;;
14060;SDS011;7105;43.616;1.434;2022-10-28T11:16:51;17.75;;;7.30;;
14060;SDS011;7105;43.616;1.434;2022-10-28T11:19:22;15.93;;;7.20;;
14060;SDS011;7105;43.616;1.434;2022-10-28T11:22:13;16.10;;;7.10;;
14060;SDS011;7105;43.616;1.434;2022-10-28T11:33:37;15.43;;;7.55;;
14060;SDS011;7105;43.616;1.434;2022-10-28T11:36:29;17.00;;;7.45;;
14060;SDS011;7105;43.616;1.434;2022-10-28T11:47:24;18.13;;;7.75;;
14060;SDS011;7105;43.616;1.434;2022-10-28T11:50:12;19.88;;;9.77;;
14060;SDS011;7105;43.616;1.434;2022-10-28T11:52:52;24.38;;;9.88;;
14060;SDS011;7105;43.616;1.434;2022-10-28T12:03:22;19.00;;;7.55;;
14060;SDS011;7105;43.616;1.434;2022-10-28T12:08:32;18.90;;;7.75;;
14060;SDS011;7105;43.616;1.434;2022-10-28T12:14:18;19.77;;;7.10;;
14060;SDS011;7105;43.616;1.434;2022-10-28T12:17:12;18.00;;;8.07;;
14060;SDS011;7105;43.616;1.434;2022-10-28T12:22:22;17.40;;;6.85;;
14060;SDS011;7105;43.616;1.434;2022-10-28T12:24:49;18.88;;;8.73;;
14060;SDS011;7105;43.616;1.434;2022-10-28T12:27:19;17.80;;;7.40;;
14060;SDS011;7105;43.616;1.434;2022-10-28T12:29:59;15.60;;;7.50;;
14060;SDS011;7105;43.616;1.434;2022-10-28T12:32:47;12.15;;;8.13;;
14060;SDS011;7105;43.616;1.434;2022-10-28T12:35:36;17.38;;;8.02;;
14060;SDS011;7105;43.616;1.434;2022-10-28T12:38:10;18.15;;;7.35;;
14060;SDS011;7105;43.616;1.434;2022-10-28T12:40:52;18.95;;;7.35;;
14060;SDS011;7105;43.616;1.434;2022-10-28T12:43:27;13.18;;;7.03;;
14060;SDS011;7105;43.616;1.434;2022-10-28T12:45:57;13.77;;;7.63;;
14060;SDS011;7105;43.616;1.434;2022-10-28T12:48:30;19.35;;;7.40;;
14060;SDS011;7105;43.616;1.434;2022-10-28T12:54:14;17.98;;;6.55;;
14060;SDS011;7105;43.616;1.434;2022-10-28T12:56:43;18.98;;;7.07;;
14060;SDS011;7105;43.616;1.434;2022-10-28T13:01:58;19.23;;;7.90;;
14060;SDS011;7105;43.616;1.434;2022-10-28T13:04:26;17.20;;;7.10;;
14060;SDS011;7105;43.616;1.434;2022-10-28T13:15:26;16.38;;;6.95;;
14060;SDS011;7105;43.616;1.434;2022-10-28T13:26:16;15.88;;;7.40;;
14060;SDS011;7105;43.616;1.434;2022-10-28T13:28:47;14.50;;;7.63;;
14060;SDS011;7105;43.616;1.434;2022-10-28T13:31:15;17.48;;;6.47;;
14060;SDS011;7105;43.616;1.434;2022-10-28T13:34:00;18.92;;;7.75;;
14060;SDS011;7105;43.616;1.434;2022-10-28T13:36:32;18.15;;;7.13;;
14060;SDS011;7105;43.616;1.434;2022-10-28T13:39:03;17.77;;;6.97;;
14060;SDS011;7105;43.616;1.434;2022-10-28T13:41:40;15.45;;;7.10;;
14060;SDS011;7105;43.616;1.434;2022-10-28T13:49:33;15.77;;;6.97;;
14060;SDS011;7105;43.616;1.434;2022-10-28T13:54:36;14.70;;;6.95;;
14060;SDS011;7105;43.616;1.434;2022-10-28T13:59:48;16.80;;;7.47;;
14060;SDS011;7105;43.616;1.434;2022-10-28T14:04:59;12.10;;;6.45;;
14060;SDS011;7105;43.616;1.434;2022-10-28T14:07:29;15.60;;;7.30;;
14060;SDS011;7105;43.616;1.434;2022-10-28T14:09:57;14.20;;;6.57;;
14060;SDS011;7105;43.616;1.434;2022-10-28T14:12:43;19.25;;;7.38;;
14060;SDS011;7105;43.616;1.434;2022-10-28T14:18:24;15.07;;;6.88;;
14060;SDS011;7105;43.616;1.434;2022-10-28T14:33:34;16.58;;;7.70;;
14060;SDS011;7105;43.616;1.434;2022-10-28T14:50:48;18.27;;;7.53;;
14060;SDS011;7105;43.616;1.434;2022-10-28T14:53:17;14.48;;;7.70;;
14060;SDS011;7105;43.616;1.434;2022-10-28T14:55:49;16.48;;;6.72;;
14060;SDS011;7105;43.616;1.434;2022-10-28T14:58:23;17.20;;;7.63;;
14060;SDS011;7105;43.616;1.434;2022-10-28T15:03:48;16.83;;;7.25;;
14060;SDS011;7105;43.616;1.434;2022-10-28T15:09:05;14.80;;;6.70;;
14060;SDS011;7105;43.616;1.434;2022-10-28T15:11:43;12.63;;;7.32;;
14060;SDS011;7105;43.616;1.434;2022-10-28T15:14:20;14.68;;;7.32;;
14060;SDS011;7105;43.616;1.434;2022-10-28T15:16:50;14.00;;;6.97;;
14060;SDS011;7105;43.616;1.434;2022-10-28T15:19:20;17.92;;;7.25;;
14060;SDS011;7105;43.616;1.434;2022-10-28T15:22:01;17.10;;;6.72;;
14060;SDS011;7105;43.616;1.434;2022-10-28T15:24:37;12.80;;;6.40;;
14060;SDS011;7105;43.616;1.434;2022-10-28T15:27:02;15.13;;;6.47;;
14060;SDS011;7105;43.616;1.434;2022-10-28T15:29:28;14.02;;;6.68;;
14060;SDS011;7105;43.616;1.434;2022-10-28T15:34:37;21.52;;;7.15;;
14060;SDS011;7105;43.616;1.434;2022-10-28T15:37:05;14.52;;;6.45;;
14060;SDS011;7105;43.616;1.434;2022-10-28T15:39:31;17.05;;;6.70;;
14060;SDS011;7105;43.616;1.434;2022-10-28T15:41:58;16.77;;;6.55;;
14060;SDS011;7105;43.616;1.434;2022-10-28T15:47:44;13.27;;;6.05;;
14060;SDS011;7105;43.616;1.434;2022-10-28T15:52:44;19.75;;;7.00;;
14060;SDS011;7105;43.616;1.434;2022-10-28T15:57:50;14.07;;;6.35;;
14060;SDS011;7105;43.616;1.434;2022-10-28T16:03:01;19.13;;;6.82;;
14060;SDS011;7105;43.616;1.434;2022-10-28T16:10:57;13.93;;;6.60;;
14060;SDS011;7105;43.616;1.434;2022-10-28T16:13:33;14.25;;;6.85;;
14060;SDS011;7105;43.616;1.434;2022-10-28T16:16:09;16.38;;;6.70;;
14060;SDS011;7105;43.616;1.434;2022-10-28T16:18:40;18.33;;;6.95;;
14060;SDS011;7105;43.616;1.434;2022-10-28T16:21:07;14.32;;;6.63;;
14060;SDS011;7105;43.616;1.434;2022-10-28T16:23:42;23.58;;;6.80;;
14060;SDS011;7105;43.616;1.434;2022-10-28T16:26:10;13.48;;;6.72;;
14060;SDS011;7105;43.616;1.434;2022-10-28T16:28:36;14.32;;;6.47;;
14060;SDS011;7105;43.616;1.434;2022-10-28T16:31:02;15.77;;;6.20;;
14060;SDS011;7105;43.616;1.434;2022-10-28T16:33:29;12.80;;;7.05;;
14060;SDS011;7105;43.616;1.434;2022-10-28T16:35:58;16.80;;;6.40;;
14060;SDS011;7105;43.616;1.434;2022-10-28T16:38:24;15.63;;;6.15;;
14060;SDS011;7105;43.616;1.434;2022-10-28T16:40:50;13.20;;;6.60;;
14060;SDS011;7105;43.616;1.434;2022-10-28T16:43:17;17.67;;;7.00;;
14060;SDS011;7105;43.616;1.434;2022-10-28T16:45:48;16.77;;;6.68;;
14060;SDS011;7105;43.616;1.434;2022-10-28T16:48:16;15.63;;;7.10;;
14060;SDS011;7105;43.616;1.434;2022-10-28T16:50:43;16.05;;;7.03;;
14060;SDS011;7105;43.616;1.434;2022-10-28T16:53:13;16.20;;;6.68;;
14060;SDS011;7105;43.616;1.434;2022-10-28T16:55:40;17.67;;;7.10;;
14060;SDS011;7105;43.616;1.434;2022-10-28T16:58:06;13.63;;;7.10;;
14060;SDS011;7105;43.616;1.434;2022-10-28T17:00:32;12.80;;;7.18;;
14060;SDS011;7105;43.616;1.434;2022-10-28T17:02:57;20.20;;;7.25;;
14060;SDS011;7105;43.616;1.434;2022-10-28T17:05:24;13.75;;;7.38;;
14060;SDS011;7105;43.616;1.434;2022-10-28T17:07:50;14.15;;;7.35;;
14060;SDS011;7105;43.616;1.434;2022-10-28T17:10:19;14.57;;;6.80;;
14060;SDS011;7105;43.616;1.434;2022-10-28T17:12:45;25.15;;;8.32;;
14060;SDS011;7105;43.616;1.434;2022-10-28T17:15:11;15.23;;;7.28;;
14060;SDS011;7105;43.616;1.434;2022-10-28T17:17:37;13.98;;;7.13;;
14060;SDS011;7105;43.616;1.434;2022-10-28T17:20:02;18.58;;;7.10;;
14060;SDS011;7105;43.616;1.434;2022-10-28T17:22:29;15.10;;;7.18;;
14060;SDS011;7105;43.616;1.434;2022-10-28T17:24:54;14.88;;;7.78;;
14060;SDS011;7105;43.616;1.434;2022-10-28T17:27:20;16.35;;;7.13;;
14060;SDS011;7105;43.616;1.434;2022-10-28T17:29:46;17.80;;;8.02;;
14060;SDS011;7105;43.616;1.434;2022-10-28T17:32:11;19.95;;;7.70;;
14060;SDS011;7105;43.616;1.434;2022-10-28T17:34:37;16.88;;;8.00;;
14060;SDS011;7105;43.616;1.434;2022-10-28T17:37:03;17.20;;;8.00;;
14060;SDS011;7105;43.616;1.434;2022-10-28T17:39:29;14.07;;;6.55;;
14060;SDS011;7105;43.616;1.434;2022-10-28T17:41:54;16.13;;;7.88;;
14060;SDS011;7105;43.616;1.434;2022-10-28T17:44:20;17.33;;;7.55;;
14060;SDS011;7105;43.616;1.434;2022-10-28T17:46:49;16.88;;;7.82;;
14060;SDS011;7105;43.616;1.434;2022-10-28T17:49:15;14.18;;;7.47;;
14060;SDS011;7105;43.616;1.434;2022-10-28T17:51:41;11.52;;;7.38;;
14060;SDS011;7105;43.616;1.434;2022-10-28T17:54:08;19.27;;;7.63;;
14060;SDS011;7105;43.616;1.434;2022-10-28T17:56:34;17.92;;;7.70;;
14060;SDS011;7105;43.616;1.434;2022-10-28T17:59:00;21.27;;;8.80;;
14060;SDS011;7105;43.616;1.434;2022-10-28T18:01:29;17.27;;;7.82;;
14060;SDS011;7105;43.616;1.434;2022-10-28T18:03:56;16.50;;;8.25;;
14060;SDS011;7105;43.616;1.434;2022-10-28T18:06:22;17.50;;;7.25;;
14060;SDS011;7105;43.616;1.434;2022-10-28T18:08:48;15.35;;;8.32;;
14060;SDS011;7105;43.616;1.434;2022-10-28T18:11:14;17.15;;;8.05;;
14060;SDS011;7105;43.616;1.434;2022-10-28T18:13:43;17.10;;;8.75;;
14060;SDS011;7105;43.616;1.434;2022-10-28T18:16:11;17.52;;;8.20;;
14060;SDS011;7105;43.616;1.434;2022-10-28T18:18:39;17.15;;;8.43;;
14060;SDS011;7105;43.616;1.434;2022-10-28T18:21:05;14.98;;;8.65;;
14060;SDS011;7105;43.616;1.434;2022-10-28T18:23:32;17.10;;;8.18;;
14060;SDS011;7105;43.616;1.434;2022-10-28T18:28:25;15.20;;;7.65;;
14060;SDS011;7105;43.616;1.434;2022-10-28T18:30:52;17.55;;;7.47;;
14060;SDS011;7105;43.616;1.434;2022-10-28T18:33:17;15.20;;;8.38;;
14060;SDS011;7105;43.616;1.434;2022-10-28T18:35:43;25.05;;;8.20;;
14060;SDS011;7105;43.616;1.434;2022-10-28T18:38:09;16.88;;;8.23;;